LTFG

Gazipasa Airport

Alanya, Turkey
TAF LTFG 190740Z 1909/1918 25007KT 9999 FEW030
Issued Valid From Valid To
Oct-19 @ 07:40 UTC
(2 hours ago)
Oct-19 @ 09:00 UTC
(an hour ago)
Oct-19 @ 18:00 UTC
(in 8 hours)
Oct-19 @ 09:00 to Oct-19 @ 18:00
TAF LTFG 190740Z 1909/1918 25007KT 9999 FEW030
Wind Visibility Clouds
250° at 7 knots 10,000+ meters
  • Few at 3,000' AGL
TAF LTFG 190740Z 1909/1918 25007KT 9999 FEW030
Issued Oct-19 @ 07:40 UTC
(2 hours ago)
Valid From Oct-19 @ 09:00 UTC
(an hour ago)
Valid To Oct-19 @ 18:00 UTC
(in 8 hours)
Oct-19 @ 09:00 - Oct-19 @ 18:00
Wind Visibility
250° at 7 knots 10,000+ meters
Clouds
  • Few at 3,000' AGL